createdAt,value
2023-01-04T00:01:15.503Z,4.20
2023-01-04T00:03:42.733Z,4.30
2023-01-04T00:06:12.736Z,4.30
2023-01-04T00:08:39.745Z,4.40
2023-01-04T00:11:13.480Z,4.50
2023-01-04T00:13:40.714Z,4.60
2023-01-04T00:16:11.304Z,4.60
2023-01-04T00:18:38.133Z,4.60
2023-01-04T00:21:25.693Z,4.60
2023-01-04T00:23:55.519Z,4.60
2023-01-04T00:26:33.512Z,4.60
2023-01-04T00:29:02.721Z,4.60
2023-01-04T00:31:30.047Z,4.70
2023-01-04T00:33:58.648Z,4.70
2023-01-04T00:36:26.148Z,4.80
2023-01-04T00:39:09.549Z,4.80
2023-01-04T00:41:59.773Z,4.80
2023-01-04T00:44:28.105Z,4.80
2023-01-04T00:46:54.921Z,4.80
2023-01-04T00:49:21.605Z,4.80
2023-01-04T00:51:48.221Z,4.90
2023-01-04T00:54:16.087Z,4.90
2023-01-04T00:56:43.161Z,4.90
2023-01-04T00:59:11.827Z,4.90
2023-01-04T01:01:40.182Z,4.90
2023-01-04T01:04:07.182Z,4.90
2023-01-04T01:06:34.743Z,4.90
2023-01-04T01:09:01.996Z,4.90
2023-01-04T01:11:30.232Z,4.90
2023-01-04T01:13:57.702Z,4.90
2023-01-04T01:16:53.796Z,5.00
2023-01-04T01:19:12.638Z,5.00
2023-01-04T01:21:39.533Z,4.90
2023-01-04T01:24:06.445Z,4.90
2023-01-04T01:26:33.190Z,4.90
2023-01-04T01:28:59.858Z,4.90
2023-01-04T01:31:28.913Z,5.00
2023-01-04T01:33:57.058Z,5.00
2023-01-04T01:36:25.638Z,5.10
2023-01-04T01:38:53.469Z,5.10
2023-01-04T01:41:28.927Z,5.20
2023-01-04T01:44:02.780Z,5.20
2023-01-04T01:46:41.995Z,5.20
2023-01-04T01:49:30.180Z,5.30
2023-01-04T01:51:59.948Z,5.40
2023-01-04T01:54:32.653Z,5.40
2023-01-04T01:57:01.784Z,5.50
2023-01-04T01:59:29.837Z,5.50
2023-01-04T02:01:56.782Z,5.50
2023-01-04T02:04:24.265Z,5.60
2023-01-04T02:06:56.170Z,5.70
2023-01-04T02:09:23.219Z,5.80
2023-01-04T02:11:50.207Z,5.80
2023-01-04T02:14:28.255Z,5.80
2023-01-04T02:17:10.501Z,5.80
2023-01-04T02:19:46.188Z,5.90
2023-01-04T02:22:46.195Z,5.90
2023-01-04T02:25:50.582Z,6.00
2023-01-04T02:28:45.882Z,6.10
2023-01-04T02:31:29.072Z,6.20
2023-01-04T02:34:00.286Z,6.20
2023-01-04T02:36:45.816Z,6.20
2023-01-04T02:39:39.996Z,6.30
2023-01-04T02:42:24.568Z,6.30
2023-01-04T02:45:04.099Z,6.30
2023-01-04T02:47:56.482Z,6.40
2023-01-04T02:50:52.430Z,6.30
2023-01-04T02:53:22.979Z,6.30
2023-01-04T02:56:15.730Z,6.30
2023-01-04T02:59:12.978Z,6.30
2023-01-04T03:02:26.675Z,6.20
2023-01-04T03:05:54.043Z,6.20
2023-01-04T03:08:40.103Z,6.10
2023-01-04T03:11:30.954Z,6.10
2023-01-04T03:14:32.864Z,6.00
2023-01-04T03:17:04.587Z,6.00
2023-01-04T03:19:51.344Z,5.90
2023-01-04T03:22:58.562Z,5.90
2023-01-04T03:25:51.855Z,5.90
2023-01-04T03:28:39.707Z,5.90
2023-01-04T03:31:33.757Z,5.90
2023-01-04T03:34:19.294Z,5.80
2023-01-04T03:37:00.205Z,5.80
2023-01-04T03:40:13.488Z,5.80
2023-01-04T03:43:23.748Z,5.80
2023-01-04T03:46:15.213Z,5.80
2023-01-04T03:49:13.448Z,5.80
2023-01-04T03:51:40.799Z,5.90
2023-01-04T03:54:21.764Z,5.80
2023-01-04T03:56:50.166Z,5.90
2023-01-04T03:59:17.106Z,5.90
2023-01-04T04:01:45.240Z,5.90
2023-01-04T04:04:30.631Z,5.90
2023-01-04T04:07:15.861Z,5.90
2023-01-04T04:09:42.452Z,5.90
2023-01-04T04:12:09.139Z,6.00
2023-01-04T04:14:35.931Z,6.00
2023-01-04T04:17:02.702Z,6.00
2023-01-04T04:19:29.430Z,6.10
2023-01-04T04:21:56.019Z,6.20
2023-01-04T04:24:25.196Z,6.20
2023-01-04T04:26:54.370Z,6.20
2023-01-04T04:29:21.672Z,6.30
2023-01-04T04:31:48.504Z,6.30
2023-01-04T04:34:15.240Z,6.40
2023-01-04T04:36:41.821Z,6.60
2023-01-04T04:39:08.568Z,6.70
2023-01-04T04:41:38.163Z,6.80
2023-01-04T04:44:25.532Z,7.00
2023-01-04T04:46:52.150Z,7.20
2023-01-04T04:49:18.908Z,7.30
2023-01-04T04:51:46.549Z,7.30
2023-01-04T04:54:20.775Z,7.40
2023-01-04T04:56:48.729Z,7.50
2023-01-04T04:59:15.937Z,7.60
2023-01-04T05:01:42.618Z,7.60
2023-01-04T05:04:09.422Z,7.60
2023-01-04T05:06:36.096Z,7.60
2023-01-04T05:09:02.820Z,7.60
2023-01-04T05:11:47.979Z,7.70
2023-01-04T05:14:14.577Z,7.70
2023-01-04T05:16:41.310Z,7.80
2023-01-04T05:19:08.053Z,7.70
2023-01-04T05:21:34.866Z,7.70
2023-01-04T05:24:01.500Z,7.80
2023-01-04T05:26:28.152Z,7.80
2023-01-04T05:28:54.767Z,7.80
2023-01-04T05:31:22.022Z,7.80
2023-01-04T05:33:48.777Z,7.80
2023-01-04T05:36:15.558Z,7.80
2023-01-04T05:38:42.138Z,7.80
2023-01-04T05:41:28.878Z,7.80
2023-01-04T05:43:55.705Z,7.80
2023-01-04T05:46:22.695Z,7.80
2023-01-04T05:48:49.402Z,7.90
2023-01-04T05:51:16.091Z,7.90
2023-01-04T05:53:42.659Z,7.90
2023-01-04T05:56:09.398Z,7.90
2023-01-04T05:58:35.996Z,7.90
2023-01-04T06:01:02.773Z,8.00
2023-01-04T06:03:29.399Z,8.00
2023-01-04T06:05:56.083Z,8.00
2023-01-04T06:08:22.726Z,8.00
2023-01-04T06:10:54.362Z,8.00
2023-01-04T06:13:21.272Z,8.10
2023-01-04T06:15:47.850Z,8.10
2023-01-04T06:18:14.446Z,8.10
2023-01-04T06:20:43.449Z,8.20
2023-01-04T06:23:10.142Z,8.10
2023-01-04T06:25:37.593Z,8.20
2023-01-04T06:28:04.204Z,8.30
2023-01-04T06:30:30.893Z,8.30
2023-01-04T06:32:57.498Z,8.30
2023-01-04T06:35:24.177Z,8.30
2023-01-04T06:37:50.747Z,8.40
2023-01-04T06:40:17.459Z,8.40
2023-01-04T06:42:47.140Z,8.50
2023-01-04T06:45:15.628Z,8.60
2023-01-04T06:47:42.578Z,8.60
2023-01-04T06:50:10.491Z,8.50
2023-01-04T06:52:37.110Z,8.60
2023-01-04T06:55:04.991Z,8.60
2023-01-04T06:57:32.173Z,8.70
2023-01-04T06:59:58.899Z,8.70
2023-01-04T07:02:26.560Z,8.70
2023-01-04T07:04:53.465Z,8.70
2023-01-04T07:07:20.680Z,8.70
2023-01-04T07:09:47.388Z,8.70
2023-01-04T07:12:14.033Z,8.70
2023-01-04T07:14:40.648Z,8.70
2023-01-04T07:17:07.254Z,8.70
2023-01-04T07:19:33.898Z,8.70
2023-01-04T07:22:01.715Z,8.70
2023-01-04T07:24:30.685Z,8.80
2023-01-04T07:26:59.658Z,8.80
2023-01-04T07:29:26.922Z,8.80
2023-01-04T07:31:53.907Z,8.80
2023-01-04T07:34:23.770Z,8.80
2023-01-04T07:36:50.768Z,8.80
2023-01-04T07:39:18.400Z,8.80
2023-01-04T07:41:45.849Z,8.80
2023-01-04T07:44:14.498Z,8.80
2023-01-04T07:46:42.360Z,8.80
2023-01-04T07:49:16.982Z,8.90
2023-01-04T07:51:46.044Z,8.90
2023-01-04T07:54:13.084Z,8.90
2023-01-04T07:56:39.700Z,8.90
2023-01-04T07:59:10.908Z,8.90
2023-01-04T08:01:38.657Z,8.90
2023-01-04T08:04:07.072Z,8.90
2023-01-04T08:06:34.534Z,8.90
2023-01-04T08:09:02.175Z,9.00
2023-01-04T08:11:29.063Z,9.00
2023-01-04T08:13:55.980Z,9.00
2023-01-04T08:16:27.380Z,9.00
2023-01-04T08:18:55.916Z,9.10
2023-01-04T08:21:23.661Z,9.10
2023-01-04T08:23:50.393Z,9.10
2023-01-04T08:26:18.371Z,9.10
2023-01-04T08:28:45.636Z,9.10
2023-01-04T08:31:14.959Z,9.10
2023-01-04T08:33:42.971Z,9.10
2023-01-04T08:36:27.542Z,9.10
2023-01-04T08:39:03.193Z,9.10
2023-01-04T08:41:56.823Z,9.10
2023-01-04T08:44:22.848Z,9.00
2023-01-04T08:46:50.809Z,9.00
2023-01-04T08:49:17.983Z,8.90
2023-01-04T08:51:45.493Z,8.90
2023-01-04T08:54:12.312Z,8.90
2023-01-04T08:56:39.516Z,8.90
2023-01-04T08:59:06.781Z,9.00
2023-01-04T09:01:36.467Z,9.00
2023-01-04T09:04:03.430Z,8.90
2023-01-04T09:06:30.541Z,8.90
2023-01-04T09:08:57.786Z,8.90
2023-01-04T09:11:25.296Z,8.90
2023-01-04T09:14:04.376Z,8.90
2023-01-04T09:16:33.939Z,8.90
2023-01-04T09:19:00.608Z,9.00
2023-01-04T09:21:27.624Z,9.00
2023-01-04T09:23:54.597Z,9.00
2023-01-04T09:26:23.289Z,9.10
2023-01-04T09:28:52.131Z,9.10
2023-01-04T09:31:21.850Z,9.10
2023-01-04T09:34:13.608Z,9.20
2023-01-04T09:36:35.108Z,9.20
2023-01-04T09:39:01.770Z,9.20
2023-01-04T09:41:30.689Z,9.20
2023-01-04T09:44:02.785Z,9.30
2023-01-04T09:46:38.687Z,9.30
2023-01-04T09:49:05.363Z,9.40
2023-01-04T09:51:36.729Z,9.40
2023-01-04T09:54:12.230Z,9.40
2023-01-04T09:56:51.242Z,9.40
2023-01-04T09:59:23.389Z,9.30
2023-01-04T10:02:14.212Z,9.30
2023-01-04T10:04:50.258Z,9.30
2023-01-04T10:07:31.841Z,9.30
2023-01-04T10:10:00.187Z,9.30
2023-01-04T10:12:40.534Z,9.40
2023-01-04T10:15:14.672Z,9.50
2023-01-04T10:21:29.896Z,9.60
2023-01-04T10:24:15.780Z,9.60
2023-01-04T10:26:47.048Z,9.70
2023-01-04T10:29:38.740Z,9.80
2023-01-04T10:32:20.259Z,9.80
2023-01-04T10:34:48.170Z,9.70
2023-01-04T10:37:24.893Z,9.60
2023-01-04T10:39:55.482Z,9.60
2023-01-04T10:42:34.818Z,9.60
2023-01-04T10:45:14.191Z,9.70
2023-01-04T10:47:50.124Z,9.70
2023-01-04T10:50:27.376Z,9.90
2023-01-04T10:53:01.649Z,9.80
2023-01-04T10:55:39.020Z,9.80
2023-01-04T10:58:33.483Z,9.70
2023-01-04T11:01:07.813Z,9.70
2023-01-04T11:03:51.789Z,9.70
2023-01-04T11:06:30.967Z,9.70
2023-01-04T11:09:13.328Z,9.70
2023-01-04T11:11:47.657Z,9.60
2023-01-04T11:14:15.334Z,9.50
2023-01-04T11:16:46.775Z,9.50
2023-01-04T11:19:13.674Z,9.50
2023-01-04T11:21:57.031Z,9.50
2023-01-04T11:24:33.167Z,9.60
2023-01-04T11:27:06.367Z,9.60
2023-01-04T11:29:41.493Z,9.60
2023-01-04T11:32:31.063Z,9.60
2023-01-04T11:34:57.785Z,9.60
2023-01-04T11:37:27.872Z,9.60
2023-01-04T11:40:24.428Z,9.60
2023-01-04T11:43:09.967Z,9.60
2023-01-04T11:45:36.974Z,9.60
2023-01-04T11:48:10.921Z,9.60
2023-01-04T11:50:48.415Z,9.60
2023-01-04T11:53:31.822Z,9.60
2023-01-04T11:56:09.464Z,9.60
2023-01-04T11:58:36.206Z,9.60
2023-01-04T12:01:03.509Z,9.70
2023-01-04T12:03:34.636Z,9.70
2023-01-04T12:06:01.477Z,9.80
2023-01-04T12:08:33.896Z,9.80
2023-01-04T12:11:03.159Z,9.80
2023-01-04T12:13:31.809Z,10.00
2023-01-04T12:16:10.439Z,10.00
2023-01-04T12:18:43.434Z,10.00
2023-01-04T12:21:20.934Z,10.10
2023-01-04T12:23:48.356Z,10.10
2023-01-04T12:26:16.396Z,10.20
2023-01-04T12:28:46.285Z,10.20
2023-01-04T12:31:19.807Z,10.20
2023-01-04T12:33:56.137Z,10.20
2023-01-04T12:36:38.212Z,10.10
2023-01-04T12:39:14.086Z,10.10
2023-01-04T12:41:40.694Z,10.00
2023-01-04T12:44:46.591Z,10.00
2023-01-04T12:47:37.763Z,9.90
2023-01-04T12:50:08.535Z,9.90
2023-01-04T12:53:19.551Z,9.90
2023-01-04T12:55:44.768Z,9.80
2023-01-04T12:58:58.123Z,9.80
2023-01-04T13:01:35.325Z,9.90
2023-01-04T13:04:41.344Z,9.90
2023-01-04T13:07:42.467Z,9.90
2023-01-04T13:10:29.319Z,9.90
2023-01-04T13:13:20.435Z,9.90
2023-01-04T13:16:10.696Z,9.80
2023-01-04T13:19:01.238Z,9.80
2023-01-04T13:21:34.279Z,9.80
2023-01-04T13:24:04.415Z,9.90
2023-01-04T13:26:31.499Z,9.90
2023-01-04T13:29:14.878Z,9.90
2023-01-04T13:31:50.109Z,9.90
2023-01-04T13:34:30.513Z,10.00
2023-01-04T13:37:13.644Z,10.00
2023-01-04T13:40:01.588Z,10.00
2023-01-04T13:42:35.766Z,10.10
2023-01-04T13:45:19.182Z,10.10
2023-01-04T13:47:49.354Z,10.20
2023-01-04T13:50:27.546Z,10.20
2023-01-04T13:53:06.292Z,10.20
2023-01-04T13:55:38.372Z,10.20
2023-01-04T13:58:15.476Z,10.30
2023-01-04T14:00:54.617Z,10.30
2023-01-04T14:03:24.344Z,10.30
2023-01-04T14:05:54.318Z,10.30
2023-01-04T14:08:31.301Z,10.30
2023-01-04T14:10:58.332Z,10.30
2023-01-04T14:13:25.211Z,10.40
2023-01-04T14:16:18.326Z,10.40
2023-01-04T14:18:44.927Z,10.50
2023-01-04T14:21:17.172Z,10.60
2023-01-04T14:23:44.973Z,10.50
2023-01-04T14:26:31.967Z,10.50
2023-01-04T14:28:58.847Z,10.60
2023-01-04T14:31:32.682Z,10.60
2023-01-04T14:34:05.057Z,10.60
2023-01-04T14:36:32.589Z,10.60
2023-01-04T14:39:09.322Z,10.60
2023-01-04T14:41:51.919Z,10.60
2023-01-04T14:44:25.143Z,10.60
2023-01-04T14:46:54.400Z,10.60
2023-01-04T14:49:22.226Z,10.60
2023-01-04T14:51:51.844Z,10.60
2023-01-04T14:54:24.614Z,10.50
2023-01-04T14:56:53.253Z,10.50
2023-01-04T14:59:20.127Z,10.60
2023-01-04T15:01:46.909Z,10.60
2023-01-04T15:04:13.931Z,10.60
2023-01-04T15:06:51.844Z,10.60
2023-01-04T15:09:18.792Z,10.60
2023-01-04T15:11:45.453Z,10.50
2023-01-04T15:14:13.181Z,10.50
2023-01-04T15:16:40.171Z,10.50
2023-01-04T15:19:06.835Z,10.50
2023-01-04T15:21:40.402Z,10.50
2023-01-04T15:24:07.944Z,10.50
2023-01-04T15:26:34.693Z,10.50
2023-01-04T15:29:02.178Z,10.60
2023-01-04T15:31:35.029Z,10.60
2023-01-04T15:34:05.161Z,10.60
2023-01-04T15:36:31.768Z,10.60
2023-01-04T15:38:58.543Z,10.60
2023-01-04T15:41:43.809Z,10.50
2023-01-04T15:44:11.311Z,10.40
2023-01-04T15:46:38.176Z,10.30
2023-01-04T15:49:04.898Z,10.30
2023-01-04T15:51:31.539Z,10.40
2023-01-04T15:53:58.287Z,10.50
2023-01-04T15:56:25.286Z,10.60
2023-01-04T15:58:54.527Z,10.60
2023-01-04T16:01:21.749Z,10.50
2023-01-04T16:03:53.419Z,10.50
2023-01-04T16:06:21.734Z,10.50
2023-01-04T16:08:50.311Z,10.50
2023-01-04T16:11:20.085Z,10.40
2023-01-04T16:13:48.079Z,10.40
2023-01-04T16:16:15.504Z,10.50
2023-01-04T16:18:50.262Z,10.40
2023-01-04T16:21:20.650Z,10.50
2023-01-04T16:23:51.770Z,10.50
2023-01-04T16:26:18.602Z,10.50
2023-01-04T16:28:54.029Z,10.50
2023-01-04T16:31:22.090Z,10.50
2023-01-04T16:33:53.382Z,10.50
2023-01-04T16:36:20.437Z,10.50
2023-01-04T16:38:47.151Z,10.40
2023-01-04T16:41:17.541Z,10.40
2023-01-04T16:43:49.226Z,10.40
2023-01-04T16:46:31.213Z,10.30
2023-01-04T16:49:03.485Z,10.30
2023-01-04T16:51:32.590Z,10.20
2023-01-04T16:54:01.894Z,10.10
2023-01-04T16:56:28.923Z,10.10
2023-01-04T16:58:55.941Z,10.10
2023-01-04T17:01:28.168Z,10.20
2023-01-04T17:04:10.268Z,10.20
2023-01-04T17:06:42.357Z,10.20
2023-01-04T17:09:12.943Z,10.20
2023-01-04T17:14:30.778Z,10.20
2023-01-04T17:16:57.902Z,10.30
2023-01-04T17:19:24.756Z,10.20
2023-01-04T17:21:51.737Z,10.30
2023-01-04T17:24:19.359Z,10.20
2023-01-04T17:26:45.973Z,10.20
2023-01-04T17:29:14.744Z,10.30
2023-01-04T17:31:43.657Z,10.30
2023-01-04T17:34:20.057Z,10.30
2023-01-04T17:36:49.191Z,10.40
2023-01-04T17:39:15.824Z,10.40
2023-01-04T17:41:42.513Z,10.40
2023-01-04T17:44:10.506Z,10.50
2023-01-04T17:46:38.059Z,10.50
2023-01-04T17:49:22.229Z,10.50
2023-01-04T17:51:50.819Z,10.60
2023-01-04T17:54:17.689Z,10.60
2023-01-04T17:56:44.341Z,10.60
2023-01-04T17:59:12.110Z,10.60
2023-01-04T18:01:38.836Z,10.60
2023-01-04T18:04:05.646Z,10.70
2023-01-04T18:06:34.746Z,10.70
2023-01-04T18:09:03.188Z,10.70
2023-01-04T18:11:30.093Z,10.70
2023-01-04T18:13:56.794Z,10.70
2023-01-04T18:16:26.557Z,10.70
2023-01-04T18:18:54.666Z,10.80
2023-01-04T18:21:28.857Z,10.70
2023-01-04T18:27:19.167Z,10.60
2023-01-04T18:29:31.822Z,10.50
2023-01-04T18:31:58.576Z,10.30
2023-01-04T18:34:26.469Z,10.30
2023-01-04T18:36:53.368Z,10.20
2023-01-04T18:39:19.936Z,10.20
2023-01-04T18:41:46.607Z,10.10
2023-01-04T18:44:31.931Z,10.00
2023-01-04T18:46:59.212Z,10.00
2023-01-04T18:49:25.845Z,10.00
2023-01-04T18:51:52.449Z,10.00
2023-01-04T18:54:21.273Z,10.00
2023-01-04T18:56:47.888Z,9.90
2023-01-04T18:59:17.490Z,9.90
2023-01-04T19:01:45.345Z,9.90
2023-01-04T19:04:12.776Z,9.90
2023-01-04T19:06:40.714Z,10.00
2023-01-04T19:09:08.083Z,9.90
2023-01-04T19:11:35.665Z,9.90
2023-01-04T19:14:03.054Z,9.90
2023-01-04T19:16:30.923Z,9.90
2023-01-04T19:18:58.979Z,9.90
2023-01-04T19:21:25.678Z,10.00
2023-01-04T19:23:52.545Z,10.00
2023-01-04T19:26:20.456Z,10.00
2023-01-04T19:28:47.119Z,10.00
2023-01-04T19:31:15.099Z,10.10
2023-01-04T19:33:41.833Z,10.10
2023-01-04T19:36:10.812Z,10.10
2023-01-04T19:38:37.907Z,10.20
2023-01-04T19:41:05.620Z,10.20
2023-01-04T19:43:33.121Z,10.20
2023-01-04T19:45:59.937Z,10.10
2023-01-04T19:48:26.785Z,10.10
2023-01-04T19:51:22.942Z,10.00
2023-01-04T19:53:51.270Z,10.10
2023-01-04T19:56:18.215Z,10.10
2023-01-04T19:58:45.077Z,10.10
2023-01-04T20:01:19.802Z,10.20
2023-01-04T20:03:46.778Z,10.20
2023-01-04T20:06:14.965Z,10.20
2023-01-04T20:08:42.508Z,10.20
2023-01-04T20:11:09.935Z,10.20
2023-01-04T20:13:36.993Z,10.20
2023-01-04T20:16:04.737Z,10.20
2023-01-04T20:18:32.014Z,10.10
2023-01-04T20:20:59.387Z,10.10
2023-01-04T20:23:26.204Z,10.10
2023-01-04T20:25:54.113Z,10.10
2023-01-04T20:28:23.163Z,10.10
2023-01-04T20:31:02.718Z,10.20
2023-01-04T20:33:30.828Z,10.20
2023-01-04T20:35:57.586Z,10.20
2023-01-04T20:38:24.215Z,10.20
2023-01-04T20:40:50.795Z,10.30
2023-01-04T20:43:37.122Z,10.30
2023-01-04T20:46:09.048Z,10.20
2023-01-04T20:48:35.793Z,10.20
2023-01-04T20:51:10.404Z,10.20
2023-01-04T20:53:37.444Z,10.20
2023-01-04T20:56:08.893Z,10.20
2023-01-04T20:58:35.591Z,10.30
2023-01-04T21:01:04.074Z,10.30
2023-01-04T21:03:30.835Z,10.30
2023-01-04T21:06:01.595Z,10.30
2023-01-04T21:08:28.968Z,10.20
2023-01-04T21:10:56.532Z,10.20
2023-01-04T21:13:23.709Z,10.20
2023-01-04T21:15:50.428Z,10.20
2023-01-04T21:18:17.282Z,10.20
2023-01-04T21:20:44.467Z,10.20
2023-01-04T21:23:16.418Z,10.20
2023-01-04T21:25:43.791Z,10.10
2023-01-04T21:28:12.191Z,10.00
2023-01-04T21:30:40.653Z,10.00
2023-01-04T21:33:08.442Z,9.90
2023-01-04T21:35:35.311Z,9.90
2023-01-04T21:38:02.249Z,9.90
2023-01-04T21:40:29.006Z,9.80
2023-01-04T21:42:56.991Z,9.80
2023-01-04T21:45:24.200Z,9.70
2023-01-04T21:47:51.132Z,9.60
2023-01-04T21:50:18.318Z,9.50
2023-01-04T21:52:44.956Z,9.40
2023-01-04T21:55:11.765Z,9.20
2023-01-04T21:57:38.520Z,9.20
2023-01-04T22:00:07.136Z,9.20
2023-01-04T22:02:34.070Z,9.30
2023-01-04T22:05:01.043Z,9.30
2023-01-04T22:07:27.735Z,9.30
2023-01-04T22:09:57.584Z,9.40
2023-01-04T22:12:24.658Z,9.40
2023-01-04T22:14:51.559Z,9.40
2023-01-04T22:17:18.255Z,9.40
2023-01-04T22:19:44.819Z,9.50
2023-01-04T22:22:11.423Z,9.40
2023-01-04T22:24:38.495Z,9.50
2023-01-04T22:27:05.603Z,9.50
2023-01-04T22:29:32.216Z,9.60
2023-01-04T22:31:59.426Z,9.60
2023-01-04T22:34:27.928Z,9.60
2023-01-04T22:36:54.709Z,9.60
2023-01-04T22:39:21.468Z,9.60
2023-01-04T22:41:48.331Z,9.70
2023-01-04T22:44:14.955Z,9.70
2023-01-04T22:46:41.746Z,9.70
2023-01-04T22:49:10.035Z,9.70
2023-01-04T22:51:37.261Z,9.70
2023-01-04T22:54:05.461Z,9.60
2023-01-04T22:56:32.180Z,9.70
2023-01-04T22:58:58.990Z,9.70
2023-01-04T23:01:28.903Z,9.60
2023-01-04T23:03:56.889Z,9.60
2023-01-04T23:06:25.629Z,9.60
2023-01-04T23:09:01.106Z,9.60
2023-01-04T23:11:30.112Z,9.60
2023-01-04T23:13:57.719Z,9.60
2023-01-04T23:16:31.863Z,9.60
2023-01-04T23:19:00.536Z,9.60
2023-01-04T23:21:27.404Z,9.60
2023-01-04T23:23:54.060Z,9.60
2023-01-04T23:26:22.833Z,9.70
2023-01-04T23:28:50.248Z,9.70
2023-01-04T23:31:22.578Z,9.70
2023-01-04T23:33:53.146Z,9.70
2023-01-04T23:36:40.003Z,9.70
2023-01-04T23:39:11.375Z,9.70
2023-01-04T23:41:47.445Z,9.70
2023-01-04T23:47:00.169Z,9.70
2023-01-04T23:49:30.033Z,9.70
2023-01-04T23:51:58.478Z,9.70
2023-01-04T23:54:25.850Z,9.70
2023-01-04T23:56:52.568Z,9.70
2023-01-04T23:59:19.783Z,9.70
